Time;durP1;ratioP1;P1;durP2;ratioP2;P2;SDS_P1;SDS_P2;PMS_P1;PMS_P2;Temp;Humidity;BMP_temperature;BMP_pressure;BME280_temperature;BME280_humidity;BME280_pressure;Samples;Min_cycle;Max_cycle;Signal;HPM_P1;HPM_P2
2022/09/01 00:01:03;;;;;;;;;;;;;;;;;;6286494;22;19980;-91
2022/09/01 00:03:51;;;;;;;;;;;;;;;;;;;;;
2022/09/01 00:06:23;;;;;;;;;;;;;;;;;;6257443;22;19922;-91
2022/09/01 00:08:58;;;;;;;;;;;;;;;;;;6226547;22;19915;-91
2022/09/01 00:11:27;;;;;;;;;;;;;;;;;;6202064;22;20006;-91
2022/09/01 00:13:55;;;;;;;;;;;;;;;;;;6232273;22;19919;-91
2022/09/01 00:16:27;;;;;;;;;;;;;;;;;;6200947;22;20783;-90
2022/09/01 00:18:58;;;;;;;;;;;;;;;;;;6204897;22;20499;-89
2022/09/01 00:21:24;;;;;;;;;;;;;;;;;;6202329;22;19926;-90
2022/09/01 00:23:50;;;;;;;;;;;;;;;;;;6203393;22;19919;-90
2022/09/01 00:26:16;;;;;;;;;;;;;;;;;;6235160;22;19919;-90
2022/09/01 00:28:42;;;;;;;;;;;;;;;;;;6231411;22;19919;-90
2022/09/01 00:31:09;;;;;;;;;;;;;;;;;;6232389;22;19919;-90
2022/09/01 00:33:35;;;;;;;;;;;;;;;;;;6229033;22;19919;-90
2022/09/01 00:36:01;;;;;;;;;;;;;;;;;;6208145;22;19973;-89
2022/09/01 00:38:27;;;;;;;;;;;;;;;;;;6288954;22;19925;-90
2022/09/01 00:40:53;;;;;;;;;;;;;;;;;;6263482;22;19926;-89
2022/09/01 00:43:22;;;;;;;;;;;;;;;;;;6266734;22;20339;-89
2022/09/01 00:45:50;;;;;;;;;;;;;;;;;;6265504;22;20274;-90
2022/09/01 00:48:16;;;;;;;;;;;;;;;;;;6291469;22;19933;-89
2022/09/01 00:50:42;;;;;;;;;;;;;;;;;;6289288;22;19919;-90
2022/09/01 00:53:08;;;;;;;;;;;;;;;;;;6288028;22;20251;-90
2022/09/01 00:55:34;;;;;;;;;;;;;;;;;;6287469;22;20394;-90
2022/09/01 00:58:00;;;;;;;;;;;;;;;;;;6262892;22;19925;-89
2022/09/01 01:00:26;;;;;;;;;;;;;;;;;;6263597;22;19919;-89
2022/09/01 01:02:54;;;;;;;;;;;;;;;;;;6263499;22;19918;-89
2022/09/01 01:05:20;;;;;;;;;;;;;;;;;;6289593;22;19926;-89
2022/09/01 01:07:46;;;;;;;;;;;;;;;;;;6264779;22;20278;-89
2022/09/01 01:10:14;;;;;;;;;;;;;;;;;;6290677;22;19923;-89
2022/09/01 01:12:41;;;;;;;;;;;;;;;;;;6260501;22;20357;-89
2022/09/01 01:15:07;;;;;;;;;;;;;;;;;;6262293;22;20088;-89
2022/09/01 01:17:33;;;;;;;;;;;;;;;;;;6262145;22;19919;-89
2022/09/01 01:23:04;;;;;;;;;;;;;;;;;;6286717;22;20290;-90
2022/09/01 01:25:30;;;;;;;;;;;;;;;;;;6285343;22;19926;-89
2022/09/01 01:27:57;;;;;;;;;;;;;;;;;;6289944;22;19922;-89
2022/09/01 01:30:24;;;;;;;;;;;;;;;;;;6262047;22;19923;-89
2022/09/01 01:32:51;;;;;;;;;;;;;;;;;;6264238;22;20377;-89
2022/09/01 01:35:17;;;;;;;;;;;;;;;;;;6260436;22;20771;-89
2022/09/01 01:37:45;;;;;;;;;;;;;;;;;;6260377;22;19921;-89
2022/09/01 01:40:14;;;;;;;;;;;;;;;;;;6289011;22;19927;-89
2022/09/01 01:42:41;;;;;;;;;;;;;;;;;;6263519;22;20348;-89
2022/09/01 01:45:11;;;;;;;;;;;;;;;;;;6263881;22;19919;-90
2022/09/01 01:47:37;;;;;;;;;;;;;;;;;;6288583;22;20255;-90
2022/09/01 01:50:08;;;;;;;;;;;;;;;;;;6262640;22;19922;-90
2022/09/01 01:52:34;;;;;;;;;;;;;;;;;;6260542;22;20251;-89
2022/09/01 01:55:00;;;;;;;;;;;;;;;;;;6289960;22;19915;-90
2022/09/01 01:57:30;;;;;;;;;;;;;;;;;;6261251;22;19930;-90
2022/09/01 01:59:56;;;;;;;;;;;;;;;;;;6263391;22;19954;-89
2022/09/01 02:02:22;;;;;;;;;;;;;;;;;;6286580;22;20396;-90
2022/09/01 02:04:48;;;;;;;;;;;;;;;;;;6264419;22;20475;-90
2022/09/01 02:07:14;;;;;;;;;;;;;;;;;;6262579;22;20032;-89
2022/09/01 02:09:44;;;;;;;;;;;;;;;;;;6259407;22;20465;-90
2022/09/01 02:12:10;;;;;;;;;;;;;;;;;;6285466;22;20018;-90
2022/09/01 02:14:37;;;;;;;;;;;;;;;;;;6286819;22;20322;-89
2022/09/01 02:17:05;;;;;;;;;;;;;;;;;;6292023;22;19919;-89
2022/09/01 02:19:31;;;;;;;;;;;;;;;;;;6260678;22;19922;-89
2022/09/01 02:21:59;;;;;;;;;;;;;;;;;;6263325;22;20017;-89
2022/09/01 02:24:25;;;;;;;;;;;;;;;;;;6288750;22;19922;-88
2022/09/01 02:26:51;;;;;;;;;;;;;;;;;;6290032;22;20302;-89
2022/09/01 02:29:17;;;;;;;;;;;;;;;;;;6264090;22;19950;-89
2022/09/01 02:31:43;;;;;;;;;;;;;;;;;;6260674;22;20328;-89
2022/09/01 02:34:12;;;;;;;;;;;;;;;;;;6288344;22;19919;-89
2022/09/01 02:36:43;;;;;;;;;;;;;;;;;;6288995;22;20607;-89
2022/09/01 02:39:08;;;;;;;;;;;;;;;;;;6263105;22;20046;-89
2022/09/01 02:41:34;;;;;;;;;;;;;;;;;;6286093;22;20327;-89
2022/09/01 02:44:01;;;;;;;;;;;;;;;;;;6263493;22;20410;-89
2022/09/01 02:46:28;;;;;;;;;;;;;;;;;;6261176;22;19918;-89
2022/09/01 02:48:54;;;;;;;;;;;;;;;;;;6289803;22;19954;-89
2022/09/01 02:51:26;;;;;;;;;;;;;;;;;;6263929;22;19969;-90
2022/09/01 02:53:52;;;;;;;;;;;;;;;;;;6262767;22;19986;-90
2022/09/01 02:56:19;;;;;;;;;;;;;;;;;;6288943;22;19946;-90
2022/09/01 02:58:45;;;;;;;;;;;;;;;;;;6259919;22;19926;-90
2022/09/01 03:01:11;;;;;;;;;;;;;;;;;;6263762;22;19923;-89
2022/09/01 03:03:37;;;;;;;;;;;;;;;;;;6286657;22;19930;-90
2022/09/01 03:06:11;;;;;;;;;;;;;;;;;;6264399;22;20533;-90
2022/09/01 03:08:38;;;;;;;;;;;;;;;;;;6258675;22;20236;-89
2022/09/01 03:11:05;;;;;;;;;;;;;;;;;;6290832;22;20006;-90
2022/09/01 03:13:31;;;;;;;;;;;;;;;;;;6285638;22;20224;-90
2022/09/01 03:15:57;;;;;;;;;;;;;;;;;;6263368;22;20255;-90
2022/09/01 03:18:23;;;;;;;;;;;;;;;;;;6261605;22;19919;-90
2022/09/01 03:20:51;;;;;;;;;;;;;;;;;;6288731;22;19993;-90
2022/09/01 03:23:17;;;;;;;;;;;;;;;;;;6263972;22;19918;-91
2022/09/01 03:25:43;;;;;;;;;;;;;;;;;;6286691;22;20337;-89
2022/09/01 03:28:11;;;;;;;;;;;;;;;;;;6262186;22;19979;-90
2022/09/01 03:30:39;;;;;;;;;;;;;;;;;;6260241;22;20320;-90
2022/09/01 03:33:05;;;;;;;;;;;;;;;;;;6288495;22;20338;-90
2022/09/01 03:35:31;;;;;;;;;;;;;;;;;;6286737;22;19929;-90
2022/09/01 03:37:57;;;;;;;;;;;;;;;;;;6264587;22;19918;-90
2022/09/01 03:40:24;;;;;;;;;;;;;;;;;;6285847;22;20319;-89
2022/09/01 03:42:51;;;;;;;;;;;;;;;;;;6286407;22;19915;-89
2022/09/01 03:45:22;;;;;;;;;;;;;;;;;;6262100;22;20331;-89
2022/09/01 03:47:48;;;;;;;;;;;;;;;;;;6261821;22;20284;-89
2022/09/01 03:50:19;;;;;;;;;;;;;;;;;;6285154;22;19930;-89
2022/09/01 03:52:45;;;;;;;;;;;;;;;;;;6263144;22;19926;-89
2022/09/01 03:55:11;;;;;;;;;;;;;;;;;;6263429;22;19918;-89
2022/09/01 03:57:41;;;;;;;;;;;;;;;;;;6261883;22;19919;-89
2022/09/01 04:00:10;;;;;;;;;;;;;;;;;;6261892;22;19919;-88
2022/09/01 04:02:36;;;;;;;;;;;;;;;;;;6259008;22;19919;-89
2022/09/01 04:05:02;;;;;;;;;;;;;;;;;;6262341;22;19929;-89
2022/09/01 04:07:29;;;;;;;;;;;;;;;;;;6260329;22;19919;-89
2022/09/01 04:09:55;;;;;;;;;;;;;;;;;;6286527;22;19928;-89
2022/09/01 04:12:24;;;;;;;;;;;;;;;;;;6262289;22;20374;-88
2022/09/01 04:14:50;;;;;;;;;;;;;;;;;;6262016;22;19919;-89
2022/09/01 04:20:07;;;;;;;;;;;;;;;;;;6289429;22;19923;-89
2022/09/01 04:22:34;;;;;;;;;;;;;;;;;;6288254;22;20324;-89
2022/09/01 04:25:00;;;;;;;;;;;;;;;;;;6290770;22;19919;-89
2022/09/01 04:27:27;;;;;;;;;;;;;;;;;;6284556;22;19992;-88
2022/09/01 04:29:55;;;;;;;;;;;;;;;;;;6261459;22;19941;-88
2022/09/01 04:32:26;;;;;;;;;;;;;;;;;;6260609;22;19957;-89
2022/09/01 04:34:52;;;;;;;;;;;;;;;;;;6263363;22;19990;-89
2022/09/01 04:37:18;;;;;;;;;;;;;;;;;;6264325;22;20422;-88
2022/09/01 04:39:47;;;;;;;;;;;;;;;;;;6286244;22;19958;-89
2022/09/01 04:42:13;;;;;;;;;;;;;;;;;;6259236;22;19919;-89
2022/09/01 04:44:39;;;;;;;;;;;;;;;;;;6286527;22;19921;-89
2022/09/01 04:47:09;;;;;;;;;;;;;;;;;;6262955;22;19923;-89
2022/09/01 04:49:36;;;;;;;;;;;;;;;;;;6284868;22;19918;-89
2022/09/01 04:52:02;;;;;;;;;;;;;;;;;;6286930;22;19957;-89
2022/09/01 04:54:31;;;;;;;;;;;;;;;;;;6287142;22;20327;-90
2022/09/01 04:56:57;;;;;;;;;;;;;;;;;;6263948;22;19926;-89
2022/09/01 04:59:23;;;;;;;;;;;;;;;;;;6257012;22;19919;-89
2022/09/01 05:01:49;;;;;;;;;;;;;;;;;;6288052;22;19951;-89
2022/09/01 05:04:16;;;;;;;;;;;;;;;;;;6262736;22;19919;-89
2022/09/01 05:06:42;;;;;;;;;;;;;;;;;;6291590;22;20465;-89
2022/09/01 05:09:08;;;;;;;;;;;;;;;;;;6292646;22;19918;-89
2022/09/01 05:11:36;;;;;;;;;;;;;;;;;;6288769;22;20274;-89
2022/09/01 05:14:03;;;;;;;;;;;;;;;;;;6264167;22;19926;-88
2022/09/01 05:16:29;;;;;;;;;;;;;;;;;;6261111;22;19950;-89
2022/09/01 05:18:55;;;;;;;;;;;;;;;;;;6291389;22;19922;-89
2022/09/01 05:21:23;;;;;;;;;;;;;;;;;;6263813;22;20354;-89
2022/09/01 05:23:50;;;;;;;;;;;;;;;;;;6294224;22;20636;-90
2022/09/01 05:26:16;;;;;;;;;;;;;;;;;;6293781;22;20363;-90
2022/09/01 05:28:42;;;;;;;;;;;;;;;;;;6295461;22;19918;-90
2022/09/01 05:31:09;;;;;;;;;;;;;;;;;;6269494;22;20241;-86
2022/09/01 05:33:35;;;;;;;;;;;;;;;;;;6262695;22;19919;-86
2022/09/01 05:36:03;;;;;;;;;;;;;;;;;;6292135;22;19926;-87
2022/09/01 05:38:30;;;;;;;;;;;;;;;;;;6266297;22;19933;-90
2022/09/01 05:40:56;;;;;;;;;;;;;;;;;;6292377;22;19990;-88
2022/09/01 05:43:22;;;;;;;;;;;;;;;;;;6262881;22;19989;-88
2022/09/01 05:45:49;;;;;;;;;;;;;;;;;;6265535;22;20231;-88
2022/09/01 05:48:20;;;;;;;;;;;;;;;;;;6265302;22;19954;-88
2022/09/01 05:50:48;;;;;;;;;;;;;;;;;;6262017;22;19934;-88
2022/09/01 05:53:17;;;;;;;;;;;;;;;;;;6267247;22;19919;-88
2022/09/01 05:55:43;;;;;;;;;;;;;;;;;;6268030;22;19957;-89
2022/09/01 05:58:12;;;;;;;;;;;;;;;;;;6268958;22;20243;-88
2022/09/01 06:00:39;;;;;;;;;;;;;;;;;;6291937;22;19915;-88
2022/09/01 06:03:06;;;;;;;;;;;;;;;;;;6268801;22;19922;-88
2022/09/01 06:05:33;;;;;;;;;;;;;;;;;;6290878;22;19972;-88
2022/09/01 06:08:00;;;;;;;;;;;;;;;;;;6292287;22;20437;-89
2022/09/01 06:10:27;;;;;;;;;;;;;;;;;;6265203;22;19972;-89
2022/09/01 06:12:53;;;;;;;;;;;;;;;;;;6267750;22;19925;-89
2022/09/01 06:15:19;;;;;;;;;;;;;;;;;;6294672;22;19918;-89
2022/09/01 06:17:48;;;;;;;;;;;;;;;;;;6269153;22;19925;-89
2022/09/01 06:20:17;;;;;;;;;;;;;;;;;;6266988;22;20259;-89
2022/09/01 06:22:44;;;;;;;;;;;;;;;;;;6263855;22;19918;-89
2022/09/01 06:25:10;;;;;;;;;;;;;;;;;;6267031;22;19994;-88
2022/09/01 06:27:41;;;;;;;;;;;;;;;;;;6292804;22;19961;-89
2022/09/01 06:30:13;;;;;;;;;;;;;;;;;;6268792;22;19919;-89
2022/09/01 06:32:42;;;;;;;;;;;;;;;;;;6266685;22;19965;-89
2022/09/01 06:35:10;;;;;;;;;;;;;;;;;;6267902;22;20005;-89
2022/09/01 06:37:37;;;;;;;;;;;;;;;;;;6293797;22;19923;-89
2022/09/01 06:40:04;;;;;;;;;;;;;;;;;;6269020;22;20368;-89
2022/09/01 06:42:34;;;;;;;;;;;;;;;;;;6291696;22;19948;-88
2022/09/01 06:45:00;;;;;;;;;;;;;;;;;;6268207;22;19981;-89
2022/09/01 06:47:27;;;;;;;;;;;;;;;;;;6266482;22;20473;-88
2022/09/01 06:49:54;;;;;;;;;;;;;;;;;;6269497;22;19969;-88
2022/09/01 06:52:23;;;;;;;;;;;;;;;;;;6295165;22;20354;-88
2022/09/01 06:54:50;;;;;;;;;;;;;;;;;;6294014;22;19915;-88
2022/09/01 06:57:16;;;;;;;;;;;;;;;;;;6267338;22;19925;-89
2022/09/01 06:59:42;;;;;;;;;;;;;;;;;;6291096;22;19919;-89
2022/09/01 07:02:10;;;;;;;;;;;;;;;;;;6267320;22;19918;-88
2022/09/01 07:04:38;;;;;;;;;;;;;;;;;;6265044;22;19938;-89
2022/09/01 07:07:05;;;;;;;;;;;;;;;;;;6294170;22;19925;-88
2022/09/01 07:09:31;;;;;;;;;;;;;;;;;;6264001;22;19922;-88
2022/09/01 07:11:58;;;;;;;;;;;;;;;;;;6293428;22;19954;-89
2022/09/01 07:14:24;;;;;;;;;;;;;;;;;;6266352;22;20315;-88
2022/09/01 07:16:50;;;;;;;;;;;;;;;;;;6269598;22;19926;-88
2022/09/01 07:19:17;;;;;;;;;;;;;;;;;;6269483;22;19930;-89
2022/09/01 07:21:42;;;;;;;;;;;;;;;;;;6294464;22;20239;-88
2022/09/01 07:24:09;;;;;;;;;;;;;;;;;;6269984;22;19926;-88
2022/09/01 07:26:35;;;;;;;;;;;;;;;;;;6267953;22;19944;-88
2022/09/01 07:29:02;;;;;;;;;;;;;;;;;;6297714;22;20282;-88
2022/09/01 07:31:28;;;;;;;;;;;;;;;;;;6269060;22;20236;-88
2022/09/01 07:33:54;;;;;;;;;;;;;;;;;;6298097;22;19953;-89
2022/09/01 07:36:20;;;;;;;;;;;;;;;;;;6298416;22;19923;-89
2022/09/01 07:38:52;;;;;;;;;;;;;;;;;;6298323;22;20375;-89
2022/09/01 07:41:18;;;;;;;;;;;;;;;;;;6299132;22;19915;-89
2022/09/01 07:43:44;;;;;;;;;;;;;;;;;;6295270;22;19950;-89
2022/09/01 07:46:10;;;;;;;;;;;;;;;;;;6270926;22;20208;-89
2022/09/01 07:48:36;;;;;;;;;;;;;;;;;;6267943;22;19923;-89
2022/09/01 07:51:02;;;;;;;;;;;;;;;;;;6297961;22;19997;-89
2022/09/01 07:53:30;;;;;;;;;;;;;;;;;;6295558;22;19915;-89
2022/09/01 07:55:56;;;;;;;;;;;;;;;;;;6297847;22;19945;-89
2022/09/01 07:58:22;;;;;;;;;;;;;;;;;;6296027;22;20247;-89
2022/09/01 08:00:48;;;;;;;;;;;;;;;;;;6297009;22;19929;-89
2022/09/01 08:03:14;;;;;;;;;;;;;;;;;;6298143;22;19922;-89
2022/09/01 08:05:40;;;;;;;;;;;;;;;;;;6269565;22;20420;-89
2022/09/01 08:08:06;;;;;;;;;;;;;;;;;;6272430;22;19923;-89
2022/09/01 08:10:32;;;;;;;;;;;;;;;;;;6268974;22;19927;-89
2022/09/01 08:12:58;;;;;;;;;;;;;;;;;;6272436;22;19919;-90
2022/09/01 08:15:24;;;;;;;;;;;;;;;;;;6294402;22;19950;-89
2022/09/01 08:17:50;;;;;;;;;;;;;;;;;;6272050;22;19918;-89
2022/09/01 08:20:16;;;;;;;;;;;;;;;;;;6296818;22;20420;-89
2022/09/01 08:22:42;;;;;;;;;;;;;;;;;;6292437;22;20437;-89
2022/09/01 08:25:08;;;;;;;;;;;;;;;;;;6298112;22;20224;-89
2022/09/01 08:27:35;;;;;;;;;;;;;;;;;;6270949;22;20287;-89
2022/09/01 08:30:01;;;;;;;;;;;;;;;;;;6298934;22;20251;-89
2022/09/01 08:32:27;;;;;;;;;;;;;;;;;;6270730;22;19915;-89
2022/09/01 08:34:53;;;;;;;;;;;;;;;;;;6297627;22;19934;-89
2022/09/01 08:37:19;;;;;;;;;;;;;;;;;;6271936;22;19919;-89
2022/09/01 08:39:45;;;;;;;;;;;;;;;;;;6296606;22;20307;-89
2022/09/01 08:42:11;;;;;;;;;;;;;;;;;;6300259;22;19919;-89
2022/09/01 08:44:37;;;;;;;;;;;;;;;;;;6271005;22;20348;-89
2022/09/01 08:47:03;;;;;;;;;;;;;;;;;;6274302;22;20327;-89
2022/09/01 08:49:29;;;;;;;;;;;;;;;;;;6298351;22;20029;-90
2022/09/01 08:51:55;;;;;;;;;;;;;;;;;;6300081;22;19918;-89
2022/09/01 08:54:21;;;;;;;;;;;;;;;;;;6297511;22;20332;-88
2022/09/01 08:56:47;;;;;;;;;;;;;;;;;;6300033;22;20320;-89
2022/09/01 08:59:13;;;;;;;;;;;;;;;;;;6274618;22;19927;-89
2022/09/01 09:01:39;;;;;;;;;;;;;;;;;;6274107;22;20255;-89
2022/09/01 09:04:05;;;;;;;;;;;;;;;;;;6276185;22;20777;-89
2022/09/01 09:06:31;;;;;;;;;;;;;;;;;;6272203;22;20244;-89
2022/09/01 09:08:57;;;;;;;;;;;;;;;;;;6274943;22;19915;-89
2022/09/01 09:11:23;;;;;;;;;;;;;;;;;;6297316;22;19929;-89
2022/09/01 09:13:49;;;;;;;;;;;;;;;;;;6272253;22;19919;-90
2022/09/01 09:16:15;;;;;;;;;;;;;;;;;;6273928;22;20350;-89
2022/09/01 09:18:41;;;;;;;;;;;;;;;;;;6297402;22;20359;-90
2022/09/01 09:21:07;;;;;;;;;;;;;;;;;;6299374;22;19954;-90
2022/09/01 09:23:33;;;;;;;;;;;;;;;;;;6297810;22;19922;-90
2022/09/01 09:25:58;;;;;;;;;;;;;;;;;;6300468;22;19915;-90
2022/09/01 09:28:24;;;;;;;;;;;;;;;;;;6297750;22;19925;-90
2022/09/01 09:30:50;;;;;;;;;;;;;;;;;;6273190;22;20345;-90
2022/09/01 09:33:16;;;;;;;;;;;;;;;;;;6273968;22;20224;-90
2022/09/01 09:35:42;;;;;;;;;;;;;;;;;;6296329;22;19919;-89
2022/09/01 09:38:08;;;;;;;;;;;;;;;;;;6297825;22;19968;-89
2022/09/01 09:40:34;;;;;;;;;;;;;;;;;;6295588;22;19918;-90
2022/09/01 09:43:00;;;;;;;;;;;;;;;;;;6299795;22;20336;-89
2022/09/01 09:45:26;;;;;;;;;;;;;;;;;;6296353;22;19919;-89
2022/09/01 09:47:52;;;;;;;;;;;;;;;;;;6299087;22;19922;-90
2022/09/01 09:50:18;;;;;;;;;;;;;;;;;;6272826;22;19923;-90
2022/09/01 09:52:45;;;;;;;;;;;;;;;;;;6270257;22;20500;-90
2022/09/01 09:55:12;;;;;;;;;;;;;;;;;;6298632;22;20247;-90
2022/09/01 09:57:38;;;;;;;;;;;;;;;;;;6271000;22;19994;-90
2022/09/01 10:00:04;;;;;;;;;;;;;;;;;;6299264;22;19953;-90
2022/09/01 10:02:30;;;;;;;;;;;;;;;;;;6296775;22;20335;-90
2022/09/01 10:04:56;;;;;;;;;;;;;;;;;;6273630;22;19923;-90
2022/09/01 10:07:22;;;;;;;;;;;;;;;;;;6298095;22;20401;-89
2022/09/01 10:09:48;;;;;;;;;;;;;;;;;;6272063;22;19915;-90
2022/09/01 10:12:14;;;;;;;;;;;;;;;;;;6272710;22;19921;-90
2022/09/01 10:14:40;;;;;;;;;;;;;;;;;;6270824;22;20310;-90
2022/09/01 10:17:06;;;;;;;;;;;;;;;;;;6275143;22;20297;-90
2022/09/01 10:19:32;;;;;;;;;;;;;;;;;;6296898;22;19915;-90
2022/09/01 10:21:59;;;;;;;;;;;;;;;;;;6273766;22;19922;-90
2022/09/01 10:24:25;;;;;;;;;;;;;;;;;;6296810;22;19915;-90
2022/09/01 10:26:51;;;;;;;;;;;;;;;;;;6273287;22;20348;-90
2022/09/01 10:29:17;;;;;;;;;;;;;;;;;;6298498;22;19919;-90
2022/09/01 10:31:43;;;;;;;;;;;;;;;;;;6270716;22;20247;-90
2022/09/01 10:34:11;;;;;;;;;;;;;;;;;;6274033;22;19950;-90
2022/09/01 10:36:37;;;;;;;;;;;;;;;;;;6296037;22;19989;-90
2022/09/01 10:39:03;;;;;;;;;;;;;;;;;;6272488;22;19977;-90
2022/09/01 10:41:29;;;;;;;;;;;;;;;;;;6271240;22;20327;-90
2022/09/01 10:43:58;;;;;;;;;;;;;;;;;;6272935;22;19918;-90
2022/09/01 10:46:25;;;;;;;;;;;;;;;;;;6271270;22;19973;-90
2022/09/01 10:48:51;;;;;;;;;;;;;;;;;;6273445;22;19992;-90
2022/09/01 10:51:17;;;;;;;;;;;;;;;;;;6298866;22;19922;-90
2022/09/01 10:53:43;;;;;;;;;;;;;;;;;;6271019;22;19914;-90
2022/09/01 10:56:09;;;;;;;;;;;;;;;;;;6273572;22;19918;-90
2022/09/01 10:58:35;;;;;;;;;;;;;;;;;;6270984;22;19980;-91
2022/09/01 11:01:01;;;;;;;;;;;;;;;;;;6272834;22;19989;-90
2022/09/01 11:03:27;;;;;;;;;;;;;;;;;;6270177;22;19923;-90
2022/09/01 11:05:53;;;;;;;;;;;;;;;;;;6273470;22;19924;-90
2022/09/01 11:08:22;;;;;;;;;;;;;;;;;;6273856;22;19925;-90
2022/09/01 11:10:48;;;;;;;;;;;;;;;;;;6273930;22;19926;-90
2022/09/01 11:13:14;;;;;;;;;;;;;;;;;;6273492;22;19918;-90
2022/09/01 11:15:41;;;;;;;;;;;;;;;;;;6271116;22;20770;-90
2022/09/01 11:18:07;;;;;;;;;;;;;;;;;;6271734;22;19994;-90
2022/09/01 11:20:33;;;;;;;;;;;;;;;;;;6268407;22;19918;-89
2022/09/01 11:23:02;;;;;;;;;;;;;;;;;;6272750;22;20000;-90
2022/09/01 11:25:30;;;;;;;;;;;;;;;;;;6270551;22;19926;-90
2022/09/01 11:27:56;;;;;;;;;;;;;;;;;;6271476;22;19922;-90
2022/09/01 11:30:22;;;;;;;;;;;;;;;;;;6269739;22;19923;-90
2022/09/01 11:32:48;;;;;;;;;;;;;;;;;;6272376;22;19996;-90
2022/09/01 11:35:14;;;;;;;;;;;;;;;;;;6271499;22;20242;-90
2022/09/01 11:37:40;;;;;;;;;;;;;;;;;;6270972;22;20278;-90
2022/09/01 11:40:09;;;;;;;;;;;;;;;;;;6272523;22;19958;-89
2022/09/01 11:42:35;;;;;;;;;;;;;;;;;;6296096;22;19934;-89
2022/09/01 11:45:01;;;;;;;;;;;;;;;;;;6297906;22;19922;-90
2022/09/01 11:47:27;;;;;;;;;;;;;;;;;;6270113;22;19926;-90
2022/09/01 11:49:53;;;;;;;;;;;;;;;;;;6272530;22;19922;-90
2022/09/01 11:52:19;;;;;;;;;;;;;;;;;;6299049;22;19918;-90
2022/09/01 11:54:45;;;;;;;;;;;;;;;;;;6270524;22;19958;-90
2022/09/01 11:57:11;;;;;;;;;;;;;;;;;;6273076;22;19919;-90
2022/09/01 11:59:37;;;;;;;;;;;;;;;;;;6296411;22;19980;-90
2022/09/01 12:02:05;;;;;;;;;;;;;;;;;;6273477;22;19914;-90
2022/09/01 12:04:32;;;;;;;;;;;;;;;;;;6271764;22;19919;-90
2022/09/01 12:06:58;;;;;;;;;;;;;;;;;;6272186;22;19921;-89
2022/09/01 12:09:24;;;;;;;;;;;;;;;;;;6269522;22;19974;-90
2022/09/01 12:11:51;;;;;;;;;;;;;;;;;;6297392;22;19990;-90
2022/09/01 12:14:17;;;;;;;;;;;;;;;;;;6300342;22;19926;-90
2022/09/01 12:16:43;;;;;;;;;;;;;;;;;;6271314;22;20292;-90
2022/09/01 12:19:10;;;;;;;;;;;;;;;;;;6275041;22;19919;-89
2022/09/01 12:21:41;;;;;;;;;;;;;;;;;;6297742;22;19926;-90
2022/09/01 12:24:07;;;;;;;;;;;;;;;;;;6274466;22;19919;-90
2022/09/01 12:26:33;;;;;;;;;;;;;;;;;;6272703;22;20268;-90
2022/09/01 12:28:59;;;;;;;;;;;;;;;;;;6274348;22;19923;-91
2022/09/01 12:31:25;;;;;;;;;;;;;;;;;;6272900;22;20298;-90
2022/09/01 12:33:51;;;;;;;;;;;;;;;;;;6299961;22;19919;-90
2022/09/01 12:36:17;;;;;;;;;;;;;;;;;;6274262;22;19957;-90
2022/09/01 12:38:43;;;;;;;;;;;;;;;;;;6298006;22;19922;-90
2022/09/01 12:41:09;;;;;;;;;;;;;;;;;;6273877;22;20352;-90
2022/09/01 12:43:37;;;;;;;;;;;;;;;;;;6273033;22;19969;-90
2022/09/01 12:46:05;;;;;;;;;;;;;;;;;;6275317;22;19980;-90
2022/09/01 12:48:31;;;;;;;;;;;;;;;;;;6271942;22;19923;-90
2022/09/01 12:51:00;;;;;;;;;;;;;;;;;;6276240;22;19964;-90
2022/09/01 12:53:27;;;;;;;;;;;;;;;;;;6274176;22;19937;-90
2022/09/01 12:55:53;;;;;;;;;;;;;;;;;;6275367;22;19963;-90
2022/09/01 12:58:19;;;;;;;;;;;;;;;;;;6273908;22;19919;-90
2022/09/01 13:00:44;;;;;;;;;;;;;;;;;;6272944;22;19926;-90
2022/09/01 13:03:11;;;;;;;;;;;;;;;;;;6274845;22;19927;-90
2022/09/01 13:05:41;;;;;;;;;;;;;;;;;;6298413;22;19922;-90
2022/09/01 13:08:07;;;;;;;;;;;;;;;;;;6275435;22;20242;-90
2022/09/01 13:10:36;;;;;;;;;;;;;;;;;;6298370;22;20336;-89
2022/09/01 13:13:02;;;;;;;;;;;;;;;;;;6275740;22;19925;-90
2022/09/01 13:15:29;;;;;;;;;;;;;;;;;;6270975;22;19919;-90
2022/09/01 13:17:55;;;;;;;;;;;;;;;;;;6272047;22;20535;-89
2022/09/01 13:20:24;;;;;;;;;;;;;;;;;;6270451;22;19929;-90
2022/09/01 13:22:51;;;;;;;;;;;;;;;;;;6300139;22;19961;-90
2022/09/01 13:25:17;;;;;;;;;;;;;;;;;;6298927;22;19919;-90
2022/09/01 13:27:43;;;;;;;;;;;;;;;;;;6272150;22;19915;-91
2022/09/01 13:30:10;;;;;;;;;;;;;;;;;;6298595;22;19977;-90
2022/09/01 13:32:36;;;;;;;;;;;;;;;;;;6271800;22;20301;-90
2022/09/01 13:35:02;;;;;;;;;;;;;;;;;;6273893;22;19994;-90
2022/09/01 13:37:28;;;;;;;;;;;;;;;;;;6271829;22;20363;-90
2022/09/01 13:39:54;;;;;;;;;;;;;;;;;;6300376;22;20220;-89
2022/09/01 13:42:23;;;;;;;;;;;;;;;;;;6275118;22;20327;-90
2022/09/01 13:44:49;;;;;;;;;;;;;;;;;;6273840;22;19957;-90
2022/09/01 13:47:15;;;;;;;;;;;;;;;;;;6272905;22;19926;-91
2022/09/01 13:49:41;;;;;;;;;;;;;;;;;;6272815;22;20314;-90
2022/09/01 13:52:07;;;;;;;;;;;;;;;;;;6273887;22;19922;-90
2022/09/01 13:54:33;;;;;;;;;;;;;;;;;;6272421;22;20259;-90
2022/09/01 13:56:59;;;;;;;;;;;;;;;;;;6273867;22;19946;-90
2022/09/01 13:59:25;;;;;;;;;;;;;;;;;;6270737;22;19914;-90
2022/09/01 14:01:51;;;;;;;;;;;;;;;;;;6299955;22;19919;-90
2022/09/01 14:04:18;;;;;;;;;;;;;;;;;;6273596;22;19915;-90
2022/09/01 14:06:44;;;;;;;;;;;;;;;;;;6270002;22;19918;-91
2022/09/01 14:09:10;;;;;;;;;;;;;;;;;;6273589;22;19968;-90
2022/09/01 14:11:36;;;;;;;;;;;;;;;;;;6270912;22;19923;-90
2022/09/01 14:14:02;;;;;;;;;;;;;;;;;;6273361;22;19919;-90
2022/09/01 14:16:28;;;;;;;;;;;;;;;;;;6270675;22;19964;-88
2022/09/01 14:18:54;;;;;;;;;;;;;;;;;;6267800;22;20343;-90
2022/09/01 14:21:20;;;;;;;;;;;;;;;;;;6270257;22;19919;-89
2022/09/01 14:23:46;;;;;;;;;;;;;;;;;;6270414;22;20093;-90
2022/09/01 14:26:12;;;;;;;;;;;;;;;;;;6271442;22;20343;-90
2022/09/01 14:28:38;;;;;;;;;;;;;;;;;;6293277;22;19926;-90
2022/09/01 14:31:04;;;;;;;;;;;;;;;;;;6272820;22;19919;-90
2022/09/01 14:33:31;;;;;;;;;;;;;;;;;;6296294;22;19925;-90
2022/09/01 14:35:57;;;;;;;;;;;;;;;;;;6270952;22;19915;-90
2022/09/01 14:38:23;;;;;;;;;;;;;;;;;;6297598;22;20366;-90
2022/09/01 14:40:50;;;;;;;;;;;;;;;;;;6298056;22;19940;-90
2022/09/01 14:43:16;;;;;;;;;;;;;;;;;;6272388;22;19971;-90
2022/09/01 14:49:11;;;;;;;;;;;;;;;;;;6093234;23;20530;-90
2022/09/01 14:51:37;;;;;;;;;;;;;;;;;;6050040;23;20429;-90
2022/09/01 14:54:05;;;;;;;;;;;;;;;;;;6108764;23;19920;-90
2022/09/01 14:59:26;;;;;;;;;;;;;;;;;;6130220;23;19924;-83
2022/09/01 15:01:52;;;;;;;;;;;;;;;;;;6117054;23;19920;-83
2022/09/01 15:04:25;;;;;;;;;;;;;;;;;;6250696;22;20302;-83
2022/09/01 15:06:51;;;;;;;;;;;;;;;;;;6265549;22;19918;-84
2022/09/01 15:09:19;;;;;;;;;;;;;;;;;;6291950;22;19922;-84
2022/09/01 15:11:45;;;;;;;;;;;;;;;;;;6289064;22;19922;-83
2022/09/01 15:14:20;;;;;;;;;;;;;;;;;;6295385;22;19984;-83
2022/09/01 15:17:04;;;;;;;;;;;;;;;;;;6293335;22;20334;-83
2022/09/01 15:19:33;;;;;;;;;;;;;;;;;;6290503;22;19943;-83
2022/09/01 15:21:59;;;;;;;;;;;;;;;;;;6277376;22;19961;-83
2022/09/01 15:24:37;;;;;;;;;;;;;;;;;;6286415;22;19990;-84
2022/09/01 15:27:15;;;;;;;;;;;;;;;;;;;;;
2022/09/01 15:29:46;;;;;;;;;;;;;;;;;;6293560;22;19964;-83
2022/09/01 15:32:21;;;;;;;;;;;;;;;;;;6296277;22;19942;-83
2022/09/01 15:35:05;;;;;;;;;;;;;;;;;;6295201;22;19965;-84
2022/09/01 15:37:31;;;;;;;;;;;;;;;;;;6289021;22;19926;-84
2022/09/01 15:39:57;;;;;;;;;;;;;;;;;;6268193;22;19989;-82
2022/09/01 15:42:26;;;;;;;;;;;;;;;;;;6288934;22;19985;-84
2022/09/01 15:45:10;;;;;;;;;;;;;;;;;;6293339;22;19915;-84
2022/09/01 15:47:39;;;;;;;;;;;;;;;;;;6284905;22;19923;-84
2022/09/01 15:50:14;;;;;;;;;;;;;;;;;;6287607;22;20333;-84
2022/09/01 15:52:40;;;;;;;;;;;;;;;;;;6284360;22;19919;-84
2022/09/01 15:55:12;;;;;;;;;;;;;;;;;;6264035;22;20342;-84
2022/09/01 15:57:40;;;;;;;;;;;;;;;;;;6292195;22;19914;-84
2022/09/01 16:00:15;;;;;;;;;;;;;;;;;;6288866;22;19947;-84
2022/09/01 16:02:41;;;;;;;;;;;;;;;;;;6258733;22;20276;-85
2022/09/01 16:05:07;;;;;;;;;;;;;;;;;;6266130;22;20327;-83
2022/09/01 16:07:33;;;;;;;;;;;;;;;;;;6260019;22;19922;-84
2022/09/01 16:10:00;;;;;;;;;;;;;;;;;;6293922;22;20018;-84
2022/09/01 16:12:26;;;;;;;;;;;;;;;;;;6261967;22;19965;-83
2022/09/01 16:14:52;;;;;;;;;;;;;;;;;;6291927;22;20243;-84
2022/09/01 16:17:18;;;;;;;;;;;;;;;;;;6292217;22;19972;-84
2022/09/01 16:19:44;;;;;;;;;;;;;;;;;;6287886;22;19937;-84
2022/09/01 16:22:10;;;;;;;;;;;;;;;;;;6259917;22;19922;-84
2022/09/01 16:24:36;;;;;;;;;;;;;;;;;;6285472;22;20303;-84
2022/09/01 16:27:02;;;;;;;;;;;;;;;;;;6289355;22;19918;-83
2022/09/01 16:29:28;;;;;;;;;;;;;;;;;;6259742;22;19942;-84
2022/09/01 16:31:54;;;;;;;;;;;;;;;;;;6288920;22;19923;-83
2022/09/01 16:34:24;;;;;;;;;;;;;;;;;;6288093;22;19919;-84
2022/09/01 16:36:50;;;;;;;;;;;;;;;;;;6291828;22;19914;-84
2022/09/01 16:39:16;;;;;;;;;;;;;;;;;;6270365;22;19918;-83
2022/09/01 16:41:43;;;;;;;;;;;;;;;;;;6289030;22;20395;-84
2022/09/01 16:44:09;;;;;;;;;;;;;;;;;;6295273;22;19915;-84
2022/09/01 16:46:35;;;;;;;;;;;;;;;;;;6287982;22;20282;-83
2022/09/01 16:49:01;;;;;;;;;;;;;;;;;;6287992;22;19945;-83
2022/09/01 16:51:27;;;;;;;;;;;;;;;;;;6290831;22;19992;-83
2022/09/01 16:53:53;;;;;;;;;;;;;;;;;;6297377;22;19926;-83
2022/09/01 16:56:19;;;;;;;;;;;;;;;;;;6269461;22;19919;-83